createdAt,value
2018-04-29T00:03:19.371Z,32.70
2018-04-29T00:07:53.319Z,30.57
2018-04-29T00:12:26.581Z,12.53
2018-04-29T00:16:59.741Z,12.73
2018-04-29T00:21:32.929Z,18.10
2018-04-29T00:26:06.877Z,25.03
2018-04-29T00:30:40.031Z,16.47
2018-04-29T00:35:13.809Z,14.33
2018-04-29T00:39:46.969Z,15.13
2018-04-29T00:44:21.016Z,17.80
2018-04-29T00:48:54.201Z,23.43
2018-04-29T00:53:28.175Z,26.53
2018-04-29T00:58:01.366Z,89.73
2018-04-29T01:02:34.710Z,54.50
2018-04-29T01:07:07.893Z,21.23
2018-04-29T01:11:41.077Z,21.13
2018-04-29T01:16:14.261Z,27.00
2018-04-29T01:20:48.225Z,53.10
2018-04-29T01:25:21.394Z,44.17
2018-04-29T01:29:55.637Z,41.87
2018-04-29T01:34:29.590Z,36.73
2018-04-29T01:39:02.781Z,49.90
2018-04-29T01:43:35.985Z,36.97
2018-04-29T01:48:09.142Z,77.40
2018-04-29T01:52:42.337Z,108.53
2018-04-29T01:57:15.502Z,72.07
2018-04-29T02:01:48.686Z,22.97
2018-04-29T02:06:22.637Z,19.77
2018-04-29T02:10:55.790Z,18.13
2018-04-29T02:15:28.978Z,18.17
2018-04-29T02:20:02.242Z,26.40
2018-04-29T02:24:35.385Z,18.70
2018-04-29T02:29:08.569Z,22.37
2018-04-29T02:33:41.766Z,15.80
2018-04-29T02:38:14.977Z,17.87
2018-04-29T02:42:48.207Z,13.43
2018-04-29T02:47:21.875Z,14.60
2018-04-29T02:51:56.124Z,12.20
2018-04-29T02:56:30.050Z,13.03
2018-04-29T03:01:03.255Z,12.30
2018-04-29T03:05:37.241Z,13.17
2018-04-29T03:10:10.390Z,11.30
2018-04-29T03:14:43.594Z,10.60
2018-04-29T03:19:16.754Z,11.43
2018-04-29T03:23:49.933Z,14.90
2018-04-29T03:28:23.132Z,17.37
2018-04-29T03:32:56.298Z,17.00
2018-04-29T03:37:30.546Z,17.87
2018-04-29T03:42:04.495Z,17.57
2018-04-29T03:46:38.457Z,19.13
2018-04-29T03:51:11.630Z,19.97
2018-04-29T03:55:44.818Z,25.87
2018-04-29T04:00:24.750Z,22.87
2018-04-29T04:04:57.934Z,26.30
2018-04-29T04:09:31.148Z,19.13
2018-04-29T04:14:04.309Z,17.93
2018-04-29T04:18:37.501Z,21.70
2018-04-29T04:23:10.653Z,21.40
2018-04-29T04:27:43.837Z,19.43
2018-04-29T04:32:17.027Z,18.10
2018-04-29T04:36:50.238Z,18.30
2018-04-29T04:41:23.418Z,22.00
2018-04-29T04:45:57.345Z,20.90
2018-04-29T04:50:31.301Z,20.37
2018-04-29T04:55:04.481Z,24.00
2018-04-29T04:59:38.438Z,19.10
2018-04-29T05:04:12.210Z,22.83
2018-04-29T05:08:46.157Z,22.60
2018-04-29T05:13:19.322Z,22.20
2018-04-29T05:17:52.766Z,17.17
2018-04-29T05:22:26.718Z,19.50
2018-04-29T05:26:59.933Z,15.20
2018-04-29T05:31:33.126Z,17.13
2018-04-29T05:36:06.318Z,16.97
2018-04-29T05:40:39.519Z,16.07
2018-04-29T05:45:12.727Z,14.77
2018-04-29T05:49:46.261Z,20.70
2018-04-29T05:54:20.194Z,21.30
2018-04-29T05:58:53.527Z,14.87
2018-04-29T06:03:26.714Z,15.97
2018-04-29T06:08:00.197Z,17.27
2018-04-29T06:12:33.404Z,14.47
2018-04-29T06:17:06.630Z,13.67
2018-04-29T06:21:39.822Z,15.70
2018-04-29T06:26:13.949Z,16.57
2018-04-29T06:30:47.892Z,16.53
2018-04-29T06:35:21.083Z,11.73
2018-04-29T06:39:54.269Z,12.97
2018-04-29T06:44:28.194Z,9.73
2018-04-29T06:49:02.142Z,10.73
2018-04-29T06:53:35.344Z,8.00
2018-04-29T06:58:08.547Z,11.33
2018-04-29T07:02:41.747Z,9.87
2018-04-29T07:07:15.263Z,8.33
2018-04-29T07:11:48.447Z,7.53
2018-04-29T07:16:22.399Z,7.90
2018-04-29T07:20:55.602Z,9.20
2018-04-29T07:25:28.790Z,8.93
2018-04-29T07:30:02.769Z,12.70
2018-04-29T07:34:35.926Z,7.32
2018-04-29T07:39:09.897Z,7.57
2018-04-29T07:43:43.069Z,9.93
2018-04-29T07:48:16.279Z,9.25
2018-04-29T07:52:49.479Z,10.50
2018-04-29T07:57:22.751Z,8.63
2018-04-29T08:01:55.958Z,9.63
2018-04-29T08:06:29.118Z,9.77
2018-04-29T08:11:02.320Z,7.15
2018-04-29T08:15:35.570Z,7.57
2018-04-29T08:20:08.730Z,8.38
2018-04-29T08:24:41.927Z,9.15
2018-04-29T08:29:15.134Z,6.53
2018-04-29T08:33:48.369Z,6.10
2018-04-29T08:38:21.607Z,7.15
2018-04-29T08:42:54.945Z,6.95
2018-04-29T08:47:28.961Z,7.87
2018-04-29T08:52:02.920Z,6.45
2018-04-29T08:56:36.132Z,6.90
2018-04-29T09:01:09.309Z,7.47
2018-04-29T09:05:43.241Z,8.00
2018-04-29T09:10:17.247Z,6.00
2018-04-29T09:14:50.530Z,7.18
2018-04-29T09:19:23.714Z,6.90
2018-04-29T09:23:56.964Z,7.22
2018-04-29T09:28:30.129Z,5.62
2018-04-29T09:33:03.380Z,5.85
2018-04-29T09:37:36.561Z,7.78
2018-04-29T09:42:09.729Z,5.35
2018-04-29T09:46:42.951Z,4.85
2018-04-29T09:51:16.143Z,5.30
2018-04-29T09:55:49.325Z,5.47
2018-04-29T10:00:27.068Z,5.87
2018-04-29T10:05:00.266Z,5.82
2018-04-29T10:09:33.494Z,5.30
2018-04-29T10:14:06.699Z,5.03
2018-04-29T10:18:39.883Z,6.22
2018-04-29T10:23:13.070Z,7.18
2018-04-29T10:27:47.022Z,6.22
2018-04-29T10:32:20.226Z,7.60
2018-04-29T10:36:53.420Z,4.47
2018-04-29T10:41:26.644Z,7.25
2018-04-29T10:45:59.824Z,8.80
2018-04-29T10:50:33.791Z,9.45
2018-04-29T10:55:06.986Z,10.85
2018-04-29T10:59:40.160Z,13.50
2018-04-29T11:04:14.139Z,6.68
2018-04-29T11:08:47.459Z,6.97
2018-04-29T11:13:20.701Z,6.05
2018-04-29T11:17:54.674Z,6.60
2018-04-29T11:22:27.912Z,7.85
2018-04-29T11:27:01.082Z,9.85
2018-04-29T11:31:34.249Z,9.23
2018-04-29T11:36:08.452Z,9.18
2018-04-29T11:40:41.793Z,12.77
2018-04-29T11:45:14.950Z,9.25
2018-04-29T11:49:48.210Z,11.05
2018-04-29T11:54:21.803Z,7.22
2018-04-29T11:58:55.732Z,8.38
2018-04-29T12:03:30.163Z,6.62
2018-04-29T12:08:04.110Z,6.20
2018-04-29T12:12:37.473Z,4.25
2018-04-29T12:17:10.631Z,6.10
2018-04-29T12:21:43.818Z,5.32
2018-04-29T12:26:17.994Z,7.00
2018-04-29T12:30:51.178Z,6.30
2018-04-29T12:35:24.383Z,6.75
2018-04-29T12:39:57.617Z,7.62
2018-04-29T12:44:30.794Z,7.57
2018-04-29T12:49:03.986Z,6.55
2018-04-29T12:53:38.015Z,7.15
2018-04-29T12:58:11.243Z,5.10
2018-04-29T13:02:44.398Z,7.68
2018-04-29T13:07:17.613Z,5.28
2018-04-29T13:11:51.574Z,7.10
2018-04-29T13:16:24.761Z,6.50
2018-04-29T13:20:58.719Z,4.62
2018-04-29T13:25:31.921Z,4.97
2018-04-29T13:30:05.129Z,6.80
2018-04-29T13:34:38.291Z,6.95
2018-04-29T13:39:12.246Z,7.68
2018-04-29T13:43:45.430Z,6.43
2018-04-29T13:48:19.393Z,7.57
2018-04-29T13:52:53.266Z,5.03
2018-04-29T13:57:27.188Z,5.90
2018-04-29T14:02:00.521Z,6.03
2018-04-29T14:06:34.470Z,6.78
2018-04-29T14:11:07.654Z,4.62
2018-04-29T14:15:40.866Z,6.50
2018-04-29T14:20:14.224Z,5.37
2018-04-29T14:24:47.382Z,5.50
2018-04-29T14:29:20.602Z,6.45
2018-04-29T14:33:53.883Z,6.90
2018-04-29T14:38:27.811Z,5.97
2018-04-29T14:43:01.146Z,6.82
2018-04-29T14:47:34.325Z,7.12
2018-04-29T14:52:07.614Z,6.57
2018-04-29T14:56:41.646Z,7.18
2018-04-29T15:01:15.670Z,6.57
2018-04-29T15:05:48.805Z,5.93
2018-04-29T15:10:22.018Z,5.72
2018-04-29T15:14:55.185Z,6.68
2018-04-29T15:19:41.058Z,8.50
2018-04-29T15:24:14.282Z,5.62
2018-04-29T15:28:47.494Z,6.53
2018-04-29T15:33:21.487Z,9.82
2018-04-29T15:37:56.256Z,9.35
2018-04-29T15:42:30.236Z,5.45
2018-04-29T15:47:03.443Z,7.50
2018-04-29T15:51:36.657Z,7.03
2018-04-29T15:56:10.022Z,5.85
2018-04-29T16:00:44.064Z,6.32
2018-04-29T16:05:17.249Z,5.20
2018-04-29T16:09:51.242Z,6.87
2018-04-29T16:14:24.442Z,5.97
2018-04-29T16:18:57.806Z,7.03
2018-04-29T16:23:31.525Z,6.78
2018-04-29T16:28:04.758Z,5.75
2018-04-29T16:32:37.946Z,7.20
2018-04-29T16:37:11.142Z,6.20
2018-04-29T16:41:45.247Z,5.25
2018-04-29T16:46:18.425Z,7.82
2018-04-29T16:50:52.036Z,7.43
2018-04-29T16:55:25.238Z,6.82
2018-04-29T16:59:58.441Z,6.82
2018-04-29T17:04:31.944Z,7.72
2018-04-29T17:09:07.095Z,7.43
2018-04-29T17:13:45.795Z,5.78
2018-04-29T17:18:20.135Z,6.05
2018-04-29T17:22:54.085Z,8.75
2018-04-29T17:27:27.271Z,6.12
2018-04-29T17:32:01.239Z,6.18
2018-04-29T17:36:34.422Z,9.90
2018-04-29T17:41:07.622Z,9.35
2018-04-29T17:45:40.854Z,6.30
2018-04-29T17:50:14.086Z,7.53
2018-04-29T17:54:47.298Z,10.10
2018-04-29T17:59:21.417Z,7.53
2018-04-29T18:09:20.841Z,9.55
2018-04-29T18:13:54.062Z,6.32
2018-04-29T18:18:27.226Z,9.45
2018-04-29T18:23:00.450Z,8.57
2018-04-29T18:27:33.753Z,7.05
2018-04-29T18:32:06.941Z,8.27
2018-04-29T18:36:41.791Z,6.43
2018-04-29T18:41:15.006Z,5.93
2018-04-29T18:45:48.194Z,8.40
2018-04-29T18:50:22.238Z,10.88
2018-04-29T18:54:55.451Z,9.50
2018-04-29T18:59:28.640Z,14.55
2018-04-29T19:04:02.602Z,11.07
2018-04-29T19:08:35.794Z,10.68
2018-04-29T19:13:08.954Z,9.65
2018-04-29T19:17:42.216Z,10.52
2018-04-29T19:22:15.406Z,10.40
2018-04-29T19:26:48.591Z,10.00
2018-04-29T19:31:22.647Z,18.98
2018-04-29T19:35:55.858Z,13.93
2018-04-29T19:40:29.195Z,25.92
2018-04-29T19:45:02.442Z,21.52
2018-04-29T19:49:36.480Z,10.07
2018-04-29T19:54:10.494Z,10.75
2018-04-29T19:58:45.041Z,8.38
2018-04-29T20:03:19.006Z,6.75
2018-04-29T20:07:52.190Z,6.30
2018-04-29T20:12:25.378Z,5.65
2018-04-29T20:16:59.422Z,4.95
2018-04-29T20:21:32.617Z,8.57
2018-04-29T20:26:06.739Z,8.52
2018-04-29T20:30:40.830Z,10.70
2018-04-29T20:35:14.030Z,10.23
2018-04-29T20:39:47.189Z,9.15
2018-04-29T20:44:20.906Z,10.63
2018-04-29T20:48:54.298Z,5.82
2018-04-29T20:53:28.249Z,9.05
2018-04-29T20:58:01.454Z,6.28
2018-04-29T21:02:34.674Z,4.85
2018-04-29T21:07:08.217Z,8.48
2018-04-29T21:11:41.404Z,9.07
2018-04-29T21:16:14.775Z,8.88
2018-04-29T21:20:48.709Z,8.38
2018-04-29T21:25:22.670Z,7.65
2018-04-29T21:29:56.202Z,8.52
2018-04-29T21:34:29.393Z,14.15
2018-04-29T21:39:02.576Z,8.18
2018-04-29T21:43:36.087Z,9.90
2018-04-29T21:48:09.434Z,14.77
2018-04-29T21:52:42.621Z,10.50
2018-04-29T21:57:15.817Z,9.45
2018-04-29T22:01:49.138Z,10.95
2018-04-29T22:06:22.353Z,9.90
2018-04-29T22:10:55.512Z,10.30
2018-04-29T22:15:28.810Z,10.52
2018-04-29T22:20:02.775Z,12.85
2018-04-29T22:24:35.944Z,15.68
2018-04-29T22:29:09.322Z,16.73
2018-04-29T22:33:42.657Z,15.90
2018-04-29T22:38:15.845Z,10.60
2018-04-29T22:42:50.622Z,10.98
2018-04-29T22:47:24.593Z,7.20
2018-04-29T22:51:57.871Z,5.97
2018-04-29T22:56:31.079Z,5.10
2018-04-29T23:01:04.401Z,4.47
2018-04-29T23:05:37.626Z,4.28
2018-04-29T23:10:10.949Z,4.78
2018-04-29T23:14:44.317Z,6.05
2018-04-29T23:19:17.511Z,5.32
2018-04-29T23:23:51.526Z,3.85
2018-04-29T23:28:25.482Z,6.10
2018-04-29T23:32:58.673Z,4.30
2018-04-29T23:37:31.825Z,3.67
2018-04-29T23:42:05.011Z,3.80
2018-04-29T23:46:38.795Z,4.93
2018-04-29T23:51:11.994Z,5.20
2018-04-29T23:55:45.942Z,4.03
